香港カーブの達人のその後 ver.3.0

LUXURY FLIGHT

080-7560-1817

羽田空港本店:東京都大田区羽田空港3-3-2
第1旅客ターミナル5階
営業時間:10:00~20:00 定休日:年中無休
電話番号:080-7560-1817

セントレア店:愛知県常滑市セントレア1-1
FLIGHT OF DREAMS FLIGHT PARK
営業時間:10:00~20:00 定休日:年中無休
電話番号:080-4945-5666

lv

香港カーブの達人のその後 ver.3.0

STAFF BLOG

2020/02/19 香港カーブの達人のその後 ver.3.0

こんにちはーーーーー

 

本日、羽田本店の最終日でございます!!

 

RJTT 190300Z 04008KT 9999 FEW030 BKN060 BKN/// 11/M03 Q1025

NOSIG RMK 1CU030 6SC060 A3027

 

おかげさまでいい天気でございます!!

 

さてさて、日頃ブログを読んで下さっている皆様から頂戴しているご質問の中で、

 

「あの、香港カーブの女性はどうなりましたか!?」

 

というのをチョイチョイもらいます。

 

中にはライバル視しているお客様もいらっしゃるようで…(笑)

 

結論から申し上げます!!!!

 

 

img_4916

 

 

絶好調です!!!(笑)

 

最近は引き続きプリンセスジュリアナ空港を攻め続け、

ビジュアルアプローチを難なくこなすまでに!!!!

 

CAさんのコスプレも着こなす絶好調ぶりです

一部ではバスガイドというツッコミもありましたが。(笑)

でも美しいものは美しい!!!!

 

皆が楽しければなんでも良い!!!!

と勝手ながら思ってます。

 

さらに接地を極めるべく、

フレア(引き起こし)をいかに丁寧にやるかが課題ではありますが、

ただ、ひたすらに、本気で737と向き合ってくださっています

 

新天地でもこの調子で頑張って参りましょう!!!

とことんお付き合いさせて頂きます

 

いつもブログを読んでくださり本当にありがとうございます!!

 

「感謝」

 

 

TOP